createdAt,value
2022-12-01T00:00:09.089Z,98.02
2022-12-01T00:01:09.019Z,98.12
2022-12-01T00:02:09.130Z,98.18
2022-12-01T00:03:09.101Z,98.44
2022-12-01T00:04:08.947Z,99.05
2022-12-01T00:05:08.927Z,98.58
2022-12-01T00:06:08.914Z,98.07
2022-12-01T00:07:08.915Z,98.38
2022-12-01T00:08:08.959Z,98.65
2022-12-01T00:09:08.885Z,98.80
2022-12-01T00:10:08.866Z,98.85
2022-12-01T00:11:08.856Z,98.80
2022-12-01T00:12:08.847Z,99.26
2022-12-01T00:13:08.858Z,98.69
2022-12-01T00:14:08.829Z,97.81
2022-12-01T00:15:08.805Z,98.22
2022-12-01T00:16:08.891Z,98.28
2022-12-01T00:17:08.787Z,98.65
2022-12-01T00:18:08.778Z,99.05
2022-12-01T00:19:08.788Z,98.90
2022-12-01T00:20:08.749Z,99.10
2022-12-01T00:21:09.464Z,98.53
2022-12-01T00:22:08.718Z,98.83
2022-12-01T00:23:08.745Z,98.83
2022-12-01T00:24:08.706Z,98.94
2022-12-01T00:25:08.791Z,98.78
2022-12-01T00:26:08.678Z,98.52
2022-12-01T00:27:08.667Z,98.00
2022-12-01T00:28:08.662Z,98.37
2022-12-01T00:29:08.651Z,98.99
2022-12-01T00:30:08.658Z,98.27
2022-12-01T00:31:08.629Z,98.11
2022-12-01T00:32:08.667Z,98.42
2022-12-01T00:33:08.602Z,98.62
2022-12-01T00:34:11.518Z,98.32
2022-12-01T00:35:08.580Z,98.32
2022-12-01T00:36:08.586Z,98.11
2022-12-01T00:37:08.548Z,98.46
2022-12-01T00:38:08.563Z,97.85
2022-12-01T00:39:08.564Z,97.95
2022-12-01T00:40:08.518Z,98.25
2022-12-01T00:41:08.508Z,98.46
2022-12-01T00:42:13.047Z,98.83
2022-12-01T00:43:09.480Z,98.52
2022-12-01T00:44:08.480Z,98.25
2022-12-01T00:45:08.472Z,98.16
2022-12-01T00:46:08.533Z,98.36
2022-12-01T00:47:08.450Z,98.25
2022-12-01T00:48:08.455Z,97.64
2022-12-01T00:49:08.430Z,97.69
2022-12-01T00:50:08.432Z,97.99
2022-12-01T00:51:08.406Z,97.22
2022-12-01T00:52:08.384Z,97.89
2022-12-01T00:53:08.401Z,97.58
2022-12-01T00:54:08.371Z,97.42
2022-12-01T00:55:08.350Z,97.42
2022-12-01T00:56:08.381Z,97.12
2022-12-01T00:57:08.331Z,97.79
2022-12-01T00:58:08.311Z,98.10
2022-12-01T00:59:08.343Z,97.95
2022-12-01T01:00:08.318Z,97.99
2022-12-01T01:01:08.394Z,97.22
2022-12-01T01:02:08.295Z,98.35
2022-12-01T01:03:08.267Z,97.02
2022-12-01T01:04:08.240Z,97.79
2022-12-01T01:05:08.294Z,98.30
2022-12-01T01:06:08.222Z,97.74
2022-12-01T01:07:08.219Z,98.97
2022-12-01T01:08:08.302Z,97.99
2022-12-01T01:09:08.197Z,98.14
2022-12-01T01:10:08.182Z,96.75
2022-12-01T01:11:08.191Z,96.91
2022-12-01T01:12:08.154Z,97.69
2022-12-01T01:13:08.152Z,97.58
2022-12-01T01:14:08.144Z,97.69
2022-12-01T01:15:08.124Z,97.28
2022-12-01T01:16:08.167Z,98.30
2022-12-01T01:17:08.157Z,97.58
2022-12-01T01:18:08.091Z,97.73
2022-12-01T01:19:08.074Z,97.89
2022-12-01T01:20:08.070Z,97.89
2022-12-01T01:21:08.051Z,98.30
2022-12-01T01:22:08.068Z,98.41
2022-12-01T01:23:08.056Z,98.04
2022-12-01T01:24:08.015Z,98.10
2022-12-01T01:25:07.995Z,98.36
2022-12-01T01:26:08.014Z,98.83
2022-12-01T01:27:07.974Z,98.87
2022-12-01T01:28:08.005Z,98.16
2022-12-01T01:29:07.964Z,98.77
2022-12-01T01:30:08.014Z,98.83
2022-12-01T01:31:07.973Z,98.72
2022-12-01T01:32:07.925Z,98.62
2022-12-01T01:33:07.917Z,98.72
2022-12-01T01:34:07.966Z,98.93
2022-12-01T01:35:07.899Z,99.28
2022-12-01T01:36:07.876Z,98.46
2022-12-01T01:37:07.865Z,98.67
2022-12-01T01:38:07.871Z,99.03
2022-12-01T01:39:07.846Z,99.03
2022-12-01T01:40:07.870Z,98.72
2022-12-01T01:41:07.835Z,99.03
2022-12-01T01:42:07.817Z,99.03
2022-12-01T01:43:07.796Z,98.62
2022-12-01T01:44:07.796Z,98.97
2022-12-01T01:45:07.779Z,98.36
2022-12-01T01:46:07.869Z,98.36
2022-12-01T01:47:07.753Z,97.79
2022-12-01T01:48:07.748Z,98.41
2022-12-01T01:49:07.738Z,98.10
2022-12-01T01:50:07.741Z,97.95
2022-12-01T01:51:07.708Z,97.73
2022-12-01T01:52:07.717Z,97.83
2022-12-01T01:53:07.677Z,98.20
2022-12-01T01:54:07.678Z,97.89
2022-12-01T01:55:07.669Z,98.61
2022-12-01T01:56:07.685Z,98.10
2022-12-01T01:57:07.682Z,98.20
2022-12-01T01:58:07.657Z,97.99
2022-12-01T01:59:07.618Z,98.41
2022-12-01T02:00:07.602Z,98.55
2022-12-01T02:01:07.657Z,98.20
2022-12-01T02:02:07.679Z,99.12
2022-12-01T02:03:07.588Z,98.80
2022-12-01T02:04:07.572Z,97.67
2022-12-01T02:05:07.550Z,97.31
2022-12-01T02:06:07.560Z,97.16
2022-12-01T02:07:07.563Z,96.69
2022-12-01T02:08:07.618Z,97.20
2022-12-01T02:09:07.500Z,97.99
2022-12-01T02:10:07.491Z,97.78
2022-12-01T02:11:07.470Z,97.57
2022-12-01T02:12:07.466Z,97.62
2022-12-01T02:13:07.459Z,98.13
2022-12-01T02:14:07.463Z,95.92
2022-12-01T02:15:07.542Z,96.80
2022-12-01T02:16:07.441Z,97.37
2022-12-01T02:17:07.474Z,97.72
2022-12-01T02:18:07.403Z,97.31
2022-12-01T02:19:07.382Z,97.66
2022-12-01T02:20:07.392Z,96.12
2022-12-01T02:21:07.362Z,97.10
2022-12-01T02:22:07.362Z,98.29
2022-12-01T02:23:07.395Z,97.67
2022-12-01T02:24:07.333Z,97.62
2022-12-01T02:25:07.331Z,97.78
2022-12-01T02:26:07.345Z,98.39
2022-12-01T02:27:07.369Z,97.41
2022-12-01T02:28:07.289Z,97.20
2022-12-01T02:29:07.310Z,97.57
2022-12-01T02:30:07.298Z,97.78
2022-12-01T02:31:07.341Z,97.94
2022-12-01T02:32:07.263Z,98.66
2022-12-01T02:33:07.232Z,98.45
2022-12-01T02:34:07.227Z,99.12
2022-12-01T02:35:07.297Z,98.96
2022-12-01T02:36:07.184Z,99.17
2022-12-01T02:37:07.243Z,98.45
2022-12-01T02:38:07.166Z,98.66
2022-12-01T02:39:07.159Z,98.66
2022-12-01T02:40:07.143Z,99.01
2022-12-01T02:41:07.135Z,98.54
2022-12-01T02:42:07.114Z,98.13
2022-12-01T02:43:07.171Z,98.08
2022-12-01T02:44:07.110Z,97.88
2022-12-01T02:45:07.101Z,98.50
2022-12-01T02:46:07.082Z,98.08
2022-12-01T02:47:07.065Z,98.50
2022-12-01T02:48:07.045Z,98.70
2022-12-01T02:49:07.125Z,98.29
2022-12-01T02:50:07.014Z,98.39
2022-12-01T02:51:07.034Z,98.45
2022-12-01T02:52:07.006Z,98.76
2022-12-01T02:53:07.014Z,98.60
2022-12-01T02:54:06.973Z,98.50
2022-12-01T02:55:06.985Z,98.50
2022-12-01T02:56:06.976Z,98.96
2022-12-01T02:57:06.953Z,98.80
2022-12-01T02:58:06.942Z,98.70
2022-12-01T02:59:06.933Z,98.91
2022-12-01T03:00:06.955Z,98.86
2022-12-01T03:01:06.917Z,98.96
2022-12-01T03:02:06.992Z,99.27
2022-12-01T03:03:06.900Z,99.48
2022-12-01T03:04:06.876Z,99.68
2022-12-01T03:05:06.905Z,99.52
2022-12-01T03:06:06.898Z,98.75
2022-12-01T03:07:06.826Z,99.10
2022-12-01T03:08:06.930Z,99.16
2022-12-01T03:09:06.807Z,99.32
2022-12-01T03:10:06.787Z,99.73
2022-12-01T03:11:06.790Z,99.52
2022-12-01T03:12:06.787Z,99.93
2022-12-01T03:13:06.759Z,99.52
2022-12-01T03:14:06.747Z,99.52
2022-12-01T03:15:06.779Z,99.68
2022-12-01T03:16:06.788Z,99.89
2022-12-01T03:17:06.749Z,99.68
2022-12-01T03:18:06.701Z,99.89
2022-12-01T03:19:06.700Z,99.42
2022-12-01T03:20:06.692Z,99.32
2022-12-01T03:21:06.664Z,99.52
2022-12-01T03:22:06.691Z,99.89
2022-12-01T03:23:06.665Z,99.63
2022-12-01T03:24:06.630Z,99.58
2022-12-01T03:25:06.647Z,99.48
2022-12-01T03:26:06.608Z,99.89
2022-12-01T03:27:06.589Z,99.79
2022-12-01T03:28:21.066Z,99.63
2022-12-01T03:29:07.699Z,99.52
2022-12-01T03:30:06.620Z,99.63
2022-12-01T03:31:06.596Z,99.63
2022-12-01T03:32:07.268Z,99.73
2022-12-01T03:33:06.519Z,99.79
2022-12-01T03:34:06.510Z,99.79
2022-12-01T03:35:06.537Z,99.68
2022-12-01T03:36:06.527Z,99.58
2022-12-01T03:37:06.491Z,99.79
2022-12-01T03:38:06.478Z,99.89
2022-12-01T03:39:06.459Z,99.68
2022-12-01T03:40:06.451Z,99.42
2022-12-01T03:41:06.495Z,99.67
2022-12-01T03:42:06.420Z,99.67
2022-12-01T03:43:06.415Z,99.52
2022-12-01T03:44:06.411Z,99.73
2022-12-01T03:45:06.391Z,99.42
2022-12-01T03:46:06.413Z,99.52
2022-12-01T03:47:06.429Z,99.73
2022-12-01T03:48:06.362Z,99.57
2022-12-01T03:49:06.343Z,99.98
2022-12-01T03:50:06.321Z,99.57
2022-12-01T03:51:06.336Z,99.93
2022-12-01T03:52:06.343Z,99.93
2022-12-01T03:53:06.321Z,99.62
2022-12-01T03:54:06.281Z,99.51
2022-12-01T03:55:06.289Z,99.47
2022-12-01T03:56:06.268Z,99.31
2022-12-01T03:57:06.254Z,99.31
2022-12-01T03:58:06.241Z,99.37
2022-12-01T03:59:06.254Z,99.57
2022-12-01T04:00:06.222Z,99.47
2022-12-01T04:01:06.202Z,99.47
2022-12-01T04:02:06.265Z,99.98
2022-12-01T04:03:06.309Z,99.10
2022-12-01T04:04:06.193Z,99.21
2022-12-01T04:05:06.162Z,99.41
2022-12-01T04:06:06.144Z,99.37
2022-12-01T04:07:06.130Z,99.57
2022-12-01T04:08:06.218Z,99.77
2022-12-01T04:09:06.114Z,99.37
2022-12-01T04:10:06.132Z,99.77
2022-12-01T04:11:06.084Z,99.67
2022-12-01T04:12:06.087Z,99.73
2022-12-01T04:13:06.057Z,99.42
2022-12-01T04:14:06.054Z,99.63
2022-12-01T04:15:06.041Z,99.83
2022-12-01T04:16:06.112Z,99.93
2022-12-01T04:17:06.010Z,99.73
2022-12-01T04:18:06.010Z,99.83
2022-12-01T04:19:05.986Z,99.63
2022-12-01T04:20:05.988Z,99.63
2022-12-01T04:21:05.996Z,99.47
2022-12-01T04:22:05.996Z,99.51
2022-12-01T04:23:05.946Z,99.82
2022-12-01T04:24:05.973Z,99.62
2022-12-01T04:25:05.916Z,99.62
2022-12-01T04:26:07.318Z,99.72
2022-12-01T04:27:05.890Z,99.31
2022-12-01T04:28:05.938Z,99.62
2022-12-01T04:29:05.887Z,99.10
2022-12-01T04:30:05.866Z,99.82
2022-12-01T04:31:05.908Z,99.51
2022-12-01T04:32:05.846Z,98.94
2022-12-01T04:33:05.826Z,99.15
2022-12-01T04:34:05.846Z,99.00
2022-12-01T04:35:05.818Z,99.57
2022-12-01T04:36:05.796Z,99.57
2022-12-01T04:37:05.787Z,99.26
2022-12-01T04:38:05.766Z,99.47
2022-12-01T04:39:05.792Z,99.31
2022-12-01T04:40:05.757Z,99.77
2022-12-01T04:41:05.738Z,99.26
2022-12-01T04:42:05.739Z,99.25
2022-12-01T04:43:05.717Z,99.05
2022-12-01T04:44:05.707Z,99.25
2022-12-01T04:45:05.728Z,99.09
2022-12-01T04:46:05.701Z,99.46
2022-12-01T04:47:05.785Z,99.21
2022-12-01T04:48:05.657Z,99.72
2022-12-01T04:49:05.649Z,99.62
2022-12-01T04:50:05.661Z,99.51
2022-12-01T04:51:05.629Z,99.72
2022-12-01T04:52:05.620Z,99.41
2022-12-01T04:53:05.590Z,99.31
2022-12-01T04:54:05.588Z,99.31
2022-12-01T04:55:05.961Z,99.37
2022-12-01T04:56:05.941Z,99.88
2022-12-01T04:57:05.560Z,99.41
2022-12-01T04:58:05.566Z,99.51
2022-12-01T04:59:05.540Z,99.21
2022-12-01T05:00:05.571Z,99.31
2022-12-01T05:01:05.661Z,99.72
2022-12-01T05:02:05.610Z,99.41
2022-12-01T05:03:06.371Z,99.46
2022-12-01T05:04:05.470Z,99.77
2022-12-01T05:05:05.471Z,99.81
2022-12-01T05:06:05.488Z,99.81
2022-12-01T05:07:05.463Z,99.56
2022-12-01T05:08:05.478Z,99.99
2022-12-01T05:09:05.431Z,99.77
2022-12-01T05:10:05.409Z,99.99
2022-12-01T05:11:05.559Z,99.62
2022-12-01T05:12:05.444Z,99.82
2022-12-01T05:13:05.393Z,99.99
2022-12-01T05:14:05.352Z,99.93
2022-12-01T05:15:05.341Z,99.77
2022-12-01T05:16:05.366Z,99.98
2022-12-01T05:17:05.349Z,99.83
2022-12-01T05:18:05.340Z,99.93
2022-12-01T05:19:05.303Z,99.93
2022-12-01T05:20:05.282Z,99.83
2022-12-01T05:21:05.261Z,99.89
2022-12-01T05:22:05.294Z,99.73
2022-12-01T05:23:06.243Z,99.57
2022-12-01T05:24:05.262Z,99.98
2022-12-01T05:25:05.231Z,99.77
2022-12-01T05:26:05.236Z,99.98
2022-12-01T05:27:05.203Z,99.83
2022-12-01T05:28:05.230Z,99.88
2022-12-01T05:29:05.183Z,99.57
2022-12-01T05:30:05.193Z,99.67
2022-12-01T05:31:05.237Z,99.72
2022-12-01T05:32:05.237Z,99.77
2022-12-01T05:33:05.144Z,99.72
2022-12-01T05:34:05.133Z,99.93
2022-12-01T05:35:05.117Z,99.99
2022-12-01T05:36:05.124Z,99.88
2022-12-01T05:37:05.112Z,99.77
2022-12-01T05:38:07.986Z,99.77
2022-12-01T05:39:05.075Z,99.73
2022-12-01T05:40:05.053Z,99.73
2022-12-01T05:41:05.155Z,99.63
2022-12-01T05:42:05.037Z,99.52
2022-12-01T05:43:05.031Z,99.63
2022-12-01T05:44:05.016Z,99.48
2022-12-01T05:45:05.014Z,99.48
2022-12-01T05:46:05.047Z,99.48
2022-12-01T05:47:05.033Z,99.38
2022-12-01T05:48:04.967Z,99.48
2022-12-01T05:49:04.948Z,99.58
2022-12-01T05:50:06.019Z,99.48
2022-12-01T05:51:04.935Z,99.68
2022-12-01T05:52:04.926Z,99.42
2022-12-01T05:53:04.926Z,99.42
2022-12-01T05:54:04.927Z,99.37
2022-12-01T05:55:05.024Z,99.77
2022-12-01T05:56:04.875Z,99.67
2022-12-01T05:57:04.875Z,99.83
2022-12-01T05:58:04.897Z,99.77
2022-12-01T05:59:19.596Z,99.67
2022-12-01T06:00:05.816Z,99.67
2022-12-01T06:01:04.805Z,99.57
2022-12-01T06:02:04.836Z,99.72
2022-12-01T06:03:04.815Z,99.82
2022-12-01T06:04:04.919Z,99.88
2022-12-01T06:05:04.760Z,99.77
2022-12-01T06:06:04.756Z,99.62
2022-12-01T06:07:04.746Z,99.62
2022-12-01T06:08:04.728Z,99.88
2022-12-01T06:09:04.810Z,99.82
2022-12-01T06:10:04.853Z,99.77
2022-12-01T06:11:04.700Z,99.93
2022-12-01T06:12:04.678Z,99.99
2022-12-01T06:13:04.676Z,99.93
2022-12-01T06:14:04.658Z,99.72
2022-12-01T06:15:04.686Z,99.93
2022-12-01T06:16:04.676Z,99.98
2022-12-01T06:17:04.660Z,99.77
2022-12-01T06:18:04.618Z,99.88
2022-12-01T06:19:04.607Z,99.62
2022-12-01T06:20:04.617Z,99.82
2022-12-01T06:21:04.660Z,99.88
2022-12-01T06:22:04.570Z,99.67
2022-12-01T06:23:04.560Z,99.88
2022-12-01T06:24:04.552Z,99.41
2022-12-01T06:25:04.538Z,99.82
2022-12-01T06:26:04.556Z,99.72
2022-12-01T06:27:04.586Z,99.82
2022-12-01T06:28:04.551Z,99.93
2022-12-01T06:29:04.589Z,99.99
2022-12-01T06:30:04.526Z,99.98
2022-12-01T06:31:04.502Z,99.88
2022-12-01T06:32:04.540Z,99.77
2022-12-01T06:33:04.477Z,99.63
2022-12-01T06:34:04.467Z,99.32
2022-12-01T06:35:04.410Z,99.26
2022-12-01T06:36:04.400Z,99.37
2022-12-01T06:37:04.417Z,99.67
2022-12-01T06:38:04.420Z,99.88
2022-12-01T06:39:04.382Z,99.47
2022-12-01T06:40:04.360Z,99.77
2022-12-01T06:41:04.357Z,99.62
2022-12-01T06:42:04.332Z,99.62
2022-12-01T06:43:04.363Z,99.82
2022-12-01T06:44:04.340Z,99.82
2022-12-01T06:45:04.302Z,99.93
2022-12-01T06:46:04.337Z,99.88
2022-12-01T06:47:04.271Z,99.73
2022-12-01T06:48:04.294Z,99.52
2022-12-01T06:49:04.252Z,99.32
2022-12-01T06:50:04.334Z,99.32
2022-12-01T06:51:04.223Z,99.32
2022-12-01T06:52:04.228Z,99.32
2022-12-01T06:53:04.202Z,99.37
2022-12-01T06:54:05.815Z,99.57
2022-12-01T06:55:04.198Z,99.57
2022-12-01T06:56:04.193Z,99.41
2022-12-01T06:57:04.163Z,99.72
2022-12-01T06:58:04.173Z,99.67
2022-12-01T06:59:04.148Z,99.57
2022-12-01T07:00:04.124Z,99.57
2022-12-01T07:01:04.168Z,99.57
2022-12-01T07:02:04.171Z,99.42
2022-12-01T07:03:04.090Z,99.11
2022-12-01T07:04:04.084Z,99.11
2022-12-01T07:05:04.072Z,99.05
2022-12-01T07:06:04.059Z,99.32
2022-12-01T07:07:04.052Z,99.26
2022-12-01T07:08:04.150Z,99.21
2022-12-01T07:09:04.042Z,99.01
2022-12-01T07:10:04.004Z,98.91
2022-12-01T07:11:04.004Z,98.85
2022-12-01T07:12:03.988Z,99.01
2022-12-01T07:13:03.985Z,98.85
2022-12-01T07:14:04.006Z,98.96
2022-12-01T07:15:03.960Z,98.75
2022-12-01T07:16:03.973Z,99.21
2022-12-01T07:17:03.984Z,99.16
2022-12-01T07:18:03.915Z,98.90
2022-12-01T07:19:03.935Z,99.21
2022-12-01T07:20:03.885Z,99.10
2022-12-01T07:21:03.886Z,99.05
2022-12-01T07:22:03.868Z,99.05
2022-12-01T07:23:03.855Z,98.75
2022-12-01T07:24:03.849Z,98.75
2022-12-01T07:25:03.894Z,99.00
2022-12-01T07:26:03.835Z,99.00
2022-12-01T07:27:03.807Z,98.85
2022-12-01T07:28:03.801Z,98.65
2022-12-01T07:29:03.827Z,98.38
2022-12-01T07:30:03.777Z,98.63
2022-12-01T07:31:03.884Z,98.84
2022-12-01T07:32:03.746Z,98.94
2022-12-01T07:33:03.764Z,98.94
2022-12-01T07:34:03.737Z,99.15
2022-12-01T07:35:03.776Z,99.05
2022-12-01T07:36:03.743Z,98.74
2022-12-01T07:37:03.879Z,98.94
2022-12-01T07:38:03.678Z,98.94
2022-12-01T07:39:03.669Z,98.43
2022-12-01T07:40:03.659Z,98.53
2022-12-01T07:41:03.650Z,98.74
2022-12-01T07:42:03.697Z,98.58
2022-12-01T07:43:04.463Z,99.14
2022-12-01T07:44:03.632Z,99.24
2022-12-01T07:45:03.610Z,99.30
2022-12-01T07:46:03.713Z,99.19
2022-12-01T07:47:03.581Z,99.44
2022-12-01T07:48:03.583Z,99.51
2022-12-01T07:49:03.600Z,99.05
2022-12-01T07:50:03.551Z,98.84
2022-12-01T07:51:03.541Z,98.47
2022-12-01T07:52:03.519Z,98.74
2022-12-01T07:53:03.540Z,98.63
2022-12-01T07:54:03.517Z,98.12
2022-12-01T07:55:03.511Z,97.97
2022-12-01T07:56:08.427Z,98.02
2022-12-01T07:57:04.526Z,98.22
2022-12-01T07:58:03.497Z,98.38
2022-12-01T07:59:03.452Z,97.97
2022-12-01T08:00:03.506Z,98.07
2022-12-01T08:01:03.457Z,97.87
2022-12-01T08:02:03.461Z,97.56
2022-12-01T08:03:03.498Z,97.71
2022-12-01T08:04:03.394Z,97.96
2022-12-01T08:05:03.409Z,98.47
2022-12-01T08:06:03.452Z,98.53
2022-12-01T08:07:03.371Z,98.47
2022-12-01T08:08:03.436Z,98.84
2022-12-01T08:09:03.330Z,98.53
2022-12-01T08:10:03.322Z,98.37
2022-12-01T08:11:03.301Z,98.58
2022-12-01T08:12:04.039Z,98.43
2022-12-01T08:13:03.294Z,98.38
2022-12-01T08:14:03.270Z,97.87
2022-12-01T08:15:03.264Z,97.56
2022-12-01T08:16:03.396Z,96.84
2022-12-01T08:17:03.276Z,96.94
2022-12-01T08:18:03.262Z,97.36
2022-12-01T08:19:03.315Z,97.09
2022-12-01T08:20:03.192Z,97.50
2022-12-01T08:21:03.183Z,97.19
2022-12-01T08:22:03.174Z,97.45
2022-12-01T08:23:03.167Z,97.36
2022-12-01T08:24:03.187Z,97.25
2022-12-01T08:25:03.155Z,96.90
2022-12-01T08:26:03.187Z,96.33
2022-12-01T08:27:03.149Z,96.08
2022-12-01T08:28:03.142Z,95.46
2022-12-01T08:29:03.205Z,95.46
2022-12-01T08:30:03.083Z,95.21
2022-12-01T08:31:03.130Z,95.05
2022-12-01T08:32:03.063Z,95.67
2022-12-01T08:33:03.164Z,95.56
2022-12-01T08:34:03.043Z,95.25
2022-12-01T08:35:03.073Z,95.15
2022-12-01T08:36:03.033Z,94.74
2022-12-01T08:37:03.030Z,95.05
2022-12-01T08:38:02.994Z,95.15
2022-12-01T08:39:02.994Z,94.70
2022-12-01T08:40:03.024Z,94.84
2022-12-01T08:41:02.987Z,94.74
2022-12-01T08:42:03.005Z,94.43
2022-12-01T08:43:02.931Z,94.08
2022-12-01T08:44:02.924Z,93.46
2022-12-01T08:45:03.048Z,93.67
2022-12-01T08:46:03.014Z,93.67
2022-12-01T08:47:02.916Z,93.05
2022-12-01T08:48:02.915Z,93.05
2022-12-01T08:49:02.879Z,92.54
2022-12-01T08:50:02.865Z,92.85
2022-12-01T08:51:02.873Z,92.70
2022-12-01T08:52:02.865Z,92.40
2022-12-01T08:53:02.841Z,93.12
2022-12-01T08:54:02.807Z,93.01
2022-12-01T08:55:02.805Z,92.80
2022-12-01T08:56:02.793Z,92.91
2022-12-01T08:57:02.786Z,92.70
2022-12-01T08:58:02.816Z,92.35
2022-12-01T08:59:02.787Z,92.70
2022-12-01T09:00:02.767Z,92.14
2022-12-01T09:01:02.746Z,91.99
2022-12-01T09:02:06.902Z,92.04
2022-12-01T09:03:02.819Z,91.42
2022-12-01T09:04:02.718Z,91.08
2022-12-01T09:05:02.769Z,90.46
2022-12-01T09:06:02.776Z,90.36
2022-12-01T09:07:02.666Z,90.46
2022-12-01T09:08:02.744Z,89.95
2022-12-01T09:09:02.787Z,88.62
2022-12-01T09:10:02.768Z,88.76
2022-12-01T09:11:02.690Z,89.27
2022-12-01T09:12:02.671Z,89.48
2022-12-01T09:13:02.599Z,88.86
2022-12-01T09:14:02.709Z,88.56
2022-12-01T09:15:02.677Z,88.76
2022-12-01T09:16:02.603Z,89.58
2022-12-01T09:17:02.539Z,89.27
2022-12-01T09:18:02.544Z,89.48
2022-12-01T09:19:02.537Z,90.34
2022-12-01T09:20:02.518Z,90.14
2022-12-01T09:21:02.519Z,89.42
2022-12-01T09:22:02.503Z,89.76
2022-12-01T09:23:02.554Z,90.38
2022-12-01T09:24:02.461Z,91.27
2022-12-01T09:25:02.472Z,91.27
2022-12-01T09:26:02.517Z,89.99
2022-12-01T09:27:02.459Z,89.69
2022-12-01T09:28:02.429Z,90.09
2022-12-01T09:29:02.411Z,89.99
2022-12-01T09:30:02.399Z,89.48
2022-12-01T09:31:02.402Z,88.56
2022-12-01T09:32:02.425Z,87.73
2022-12-01T09:33:02.361Z,87.73
2022-12-01T09:34:02.367Z,86.91
2022-12-01T09:35:02.380Z,87.28
2022-12-01T09:36:02.373Z,87.70
2022-12-01T09:37:02.320Z,87.90
2022-12-01T09:38:02.395Z,87.38
2022-12-01T09:39:02.281Z,86.83
2022-12-01T09:40:02.299Z,86.63
2022-12-01T09:41:02.263Z,86.15
2022-12-01T09:42:07.617Z,86.77
2022-12-01T09:43:03.301Z,88.76
2022-12-01T09:44:02.279Z,89.27
2022-12-01T09:45:02.214Z,88.24
2022-12-01T09:46:02.218Z,87.02
2022-12-01T09:47:02.267Z,86.91
2022-12-01T09:48:02.192Z,86.60
2022-12-01T09:49:02.352Z,86.40
2022-12-01T09:50:02.196Z,86.46
2022-12-01T09:51:02.141Z,86.57
2022-12-01T09:52:02.142Z,86.66
2022-12-01T09:53:02.150Z,86.87
2022-12-01T09:54:02.147Z,86.72
2022-12-01T09:55:02.102Z,88.89
2022-12-01T09:56:08.518Z,89.40
2022-12-01T09:57:03.113Z,87.85
2022-12-01T09:58:02.175Z,90.20
2022-12-01T09:59:02.065Z,91.85
2022-12-01T10:00:02.073Z,93.86
2022-12-01T10:01:02.261Z,92.11
2022-12-01T10:02:02.096Z,93.55
2022-12-01T10:03:02.073Z,92.89
2022-12-01T10:04:01.995Z,92.38
2022-12-01T10:05:02.046Z,93.51
2022-12-01T10:06:27.780Z,92.89
2022-12-01T10:07:03.143Z,92.58
2022-12-01T10:08:02.118Z,91.14
2022-12-01T10:09:01.965Z,91.31
2022-12-01T10:10:01.990Z,91.49
2022-12-01T10:11:01.975Z,92.87
2022-12-01T10:12:02.147Z,93.76
2022-12-01T10:13:01.981Z,92.73
2022-12-01T10:14:02.060Z,92.27
2022-12-01T10:15:01.925Z,92.69
2022-12-01T10:16:01.962Z,92.13
2022-12-01T10:17:02.201Z,91.88
2022-12-01T10:18:01.844Z,90.95
2022-12-01T10:19:01.833Z,90.85
2022-12-01T10:20:01.891Z,91.27
2022-12-01T10:21:01.816Z,91.47
2022-12-01T10:22:01.809Z,91.06
2022-12-01T10:23:01.822Z,90.34
2022-12-01T10:24:01.799Z,90.03
2022-12-01T10:25:01.778Z,89.11
2022-12-01T10:26:01.766Z,88.90
2022-12-01T10:27:01.761Z,90.80
2022-12-01T10:28:01.836Z,91.45
2022-12-01T10:29:01.746Z,92.27
2022-12-01T10:30:01.698Z,92.69
2022-12-01T10:31:01.978Z,92.89
2022-12-01T10:32:01.775Z,92.79
2022-12-01T10:33:01.670Z,93.55
2022-12-01T10:34:01.678Z,94.33
2022-12-01T10:35:01.637Z,94.74
2022-12-01T10:36:01.639Z,95.36
2022-12-01T10:37:01.620Z,95.75
2022-12-01T10:38:01.627Z,96.43
2022-12-01T10:39:01.593Z,96.73
2022-12-01T10:40:01.617Z,96.34
2022-12-01T10:41:01.584Z,95.47
2022-12-01T10:42:01.573Z,94.76
2022-12-01T10:43:01.551Z,93.79
2022-12-01T10:44:01.528Z,93.63
2022-12-01T10:45:01.531Z,93.68
2022-12-01T10:46:01.604Z,91.06
2022-12-01T10:47:01.512Z,91.51
2022-12-01T10:48:01.528Z,92.70
2022-12-01T10:49:01.480Z,90.48
2022-12-01T10:50:01.486Z,87.82
2022-12-01T10:51:01.462Z,88.74
2022-12-01T10:52:02.657Z,85.97
2022-12-01T10:53:02.809Z,84.36
2022-12-01T10:54:01.441Z,85.49
2022-12-01T10:55:01.410Z,83.54
2022-12-01T10:56:01.441Z,85.28
2022-12-01T10:57:01.376Z,82.62
2022-12-01T10:58:06.155Z,84.20
2022-12-01T10:59:02.365Z,87.49
2022-12-01T11:00:01.353Z,87.85
2022-12-01T11:01:01.639Z,83.13
2022-12-01T11:02:01.476Z,83.85
2022-12-01T11:03:01.563Z,85.22
2022-12-01T11:04:01.367Z,86.60
2022-12-01T11:05:01.310Z,87.49
2022-12-01T11:06:01.312Z,86.70
2022-12-01T11:07:01.284Z,88.20
2022-12-01T11:08:01.296Z,87.49
2022-12-01T11:09:01.285Z,87.34
2022-12-01T11:10:01.234Z,86.25
2022-12-01T11:11:01.217Z,86.05
2022-12-01T11:12:01.233Z,85.36
2022-12-01T11:13:01.234Z,84.99
2022-12-01T11:14:01.211Z,85.78
2022-12-01T11:15:01.201Z,84.30
2022-12-01T11:16:01.174Z,84.75
2022-12-01T11:17:01.252Z,87.52
2022-12-01T11:18:01.160Z,87.32
2022-12-01T11:19:01.189Z,85.34
2022-12-01T11:20:01.227Z,87.71
2022-12-01T11:21:01.113Z,89.56
2022-12-01T11:22:01.095Z,90.75
2022-12-01T11:23:01.095Z,89.38
2022-12-01T11:24:01.073Z,87.94
2022-12-01T11:25:01.066Z,86.08
2022-12-01T11:26:01.113Z,85.88
2022-12-01T11:27:01.074Z,85.74
2022-12-01T11:28:01.040Z,84.50
2022-12-01T11:29:01.014Z,87.84
2022-12-01T11:30:01.016Z,86.77
2022-12-01T11:31:01.014Z,86.32
2022-12-01T11:32:01.105Z,86.21
2022-12-01T11:33:00.995Z,84.16
2022-12-01T11:34:00.967Z,86.11
2022-12-01T11:35:00.955Z,84.88
2022-12-01T11:36:00.925Z,85.94
2022-12-01T11:37:00.918Z,84.85
2022-12-01T11:38:28.428Z,85.57
2022-12-01T11:39:01.895Z,86.60
2022-12-01T11:40:00.894Z,86.29
2022-12-01T11:41:00.941Z,88.39
2022-12-01T11:42:00.871Z,87.22
2022-12-01T11:43:00.856Z,87.38
2022-12-01T11:44:01.974Z,87.90
2022-12-01T11:45:00.834Z,88.35
2022-12-01T11:46:00.871Z,88.56
2022-12-01T11:47:22.234Z,87.59
2022-12-01T11:48:01.835Z,86.00
2022-12-01T11:49:00.870Z,89.13
2022-12-01T11:50:00.808Z,87.38
2022-12-01T11:51:00.787Z,86.46
2022-12-01T11:52:00.774Z,85.53
2022-12-01T11:53:00.744Z,88.37
2022-12-01T11:54:00.776Z,86.66
2022-12-01T11:55:04.299Z,87.38
2022-12-01T11:56:01.735Z,87.32
2022-12-01T11:57:25.818Z,87.59
2022-12-01T11:58:01.707Z,89.64
2022-12-01T11:59:00.686Z,87.59
2022-12-01T12:00:00.690Z,84.71
2022-12-01T12:01:00.681Z,87.04
2022-12-01T12:02:00.747Z,85.12
2022-12-01T12:03:00.698Z,86.00
2022-12-01T12:04:00.614Z,86.83
2022-12-01T12:05:00.626Z,84.98
2022-12-01T12:06:17.701Z,88.00
2022-12-01T12:07:01.676Z,87.18
2022-12-01T12:08:01.365Z,87.18
2022-12-01T12:09:00.675Z,86.32
2022-12-01T12:10:00.548Z,85.28
2022-12-01T12:11:00.677Z,87.40
2022-12-01T12:12:00.537Z,87.24
2022-12-01T12:13:00.549Z,87.55
2022-12-01T12:14:00.550Z,85.35
2022-12-01T12:15:00.489Z,87.01
2022-12-01T12:16:00.484Z,89.17
2022-12-01T12:17:00.501Z,91.74
2022-12-01T12:18:00.482Z,90.30
2022-12-01T12:19:00.492Z,88.62
2022-12-01T12:20:07.593Z,86.77
2022-12-01T12:21:01.413Z,85.18
2022-12-01T12:22:00.404Z,84.67
2022-12-01T12:23:00.428Z,84.22
2022-12-01T12:24:00.400Z,85.35
2022-12-01T12:25:00.401Z,87.34
2022-12-01T12:26:00.360Z,85.66
2022-12-01T12:27:00.340Z,85.35
2022-12-01T12:28:00.358Z,84.39
2022-12-01T12:29:00.358Z,84.26
2022-12-01T12:30:00.313Z,84.22
2022-12-01T12:31:00.350Z,83.75
2022-12-01T12:32:00.339Z,86.48
2022-12-01T12:33:00.310Z,84.53
2022-12-01T12:34:00.264Z,83.36
2022-12-01T12:35:00.282Z,82.27
2022-12-01T12:36:00.241Z,84.16
2022-12-01T12:37:00.281Z,84.47
2022-12-01T12:38:00.221Z,84.63
2022-12-01T12:39:00.206Z,84.01
2022-12-01T12:40:00.218Z,83.06
2022-12-01T12:41:00.173Z,85.12
2022-12-01T12:42:00.175Z,85.28
2022-12-01T12:43:00.202Z,85.18
2022-12-01T12:44:00.188Z,85.55
2022-12-01T12:45:00.154Z,85.08
2022-12-01T12:46:00.240Z,86.05
2022-12-01T12:47:00.115Z,87.45
2022-12-01T12:48:00.140Z,86.52
2022-12-01T12:49:19.837Z,84.16
2022-12-01T12:50:01.088Z,83.75
2022-12-01T12:51:00.072Z,83.99
2022-12-01T12:52:05.149Z,84.61